createdAt,value
2024-01-11T00:02:03.646Z,30.14
2024-01-11T00:04:37.076Z,30.09
2024-01-11T00:07:10.737Z,30.15
2024-01-11T00:09:46.371Z,30.24
2024-01-11T00:12:19.868Z,30.23
2024-01-11T00:14:53.231Z,30.21
2024-01-11T00:17:26.808Z,30.09
2024-01-11T00:20:00.299Z,30.22
2024-01-11T00:22:34.126Z,30.03
2024-01-11T00:25:09.493Z,30.00
2024-01-11T00:27:43.108Z,30.19
2024-01-11T00:30:17.063Z,30.16
2024-01-11T00:32:50.589Z,30.22
2024-01-11T00:35:24.089Z,30.16
2024-01-11T00:37:57.512Z,30.08
2024-01-11T00:40:31.033Z,30.14
2024-01-11T00:43:04.513Z,30.26
2024-01-11T00:45:37.874Z,29.94
2024-01-11T00:48:11.631Z,30.04
2024-01-11T00:50:45.113Z,30.37
2024-01-11T00:53:18.875Z,30.09
2024-01-11T00:55:53.085Z,29.97
2024-01-11T00:58:26.554Z,30.05
2024-01-11T01:01:00.007Z,30.01
2024-01-11T01:03:33.586Z,29.99
2024-01-11T01:06:07.677Z,30.00
2024-01-11T01:08:41.248Z,30.03
2024-01-11T01:11:14.911Z,30.00
2024-01-11T01:13:48.513Z,30.10
2024-01-11T01:16:21.933Z,30.00
2024-01-11T01:18:55.441Z,30.06
2024-01-11T01:21:29.218Z,30.07
2024-01-11T01:24:02.816Z,29.90
2024-01-11T01:26:36.234Z,30.09
2024-01-11T01:29:09.807Z,30.08
2024-01-11T01:31:43.148Z,30.07
2024-01-11T01:34:16.771Z,29.94
2024-01-11T01:36:50.182Z,29.98
2024-01-11T01:39:23.603Z,29.94
2024-01-11T01:41:57.032Z,29.98
2024-01-11T01:44:30.743Z,30.03
2024-01-11T01:47:04.872Z,29.95
2024-01-11T01:49:39.639Z,29.89
2024-01-11T01:52:16.299Z,29.84
2024-01-11T01:54:51.957Z,29.81
2024-01-11T01:57:25.410Z,29.79
2024-01-11T01:59:59.038Z,29.75
2024-01-11T02:02:33.701Z,29.80
2024-01-11T02:05:08.595Z,29.85
2024-01-11T02:07:42.127Z,29.71
2024-01-11T02:10:15.785Z,29.79
2024-01-11T02:12:49.154Z,30.15
2024-01-11T02:15:22.875Z,29.85
2024-01-11T02:17:56.382Z,29.77
2024-01-11T02:20:29.890Z,29.90
2024-01-11T02:23:07.738Z,29.99
2024-01-11T02:25:41.128Z,29.82
2024-01-11T02:28:14.473Z,29.79
2024-01-11T02:30:47.933Z,29.91
2024-01-11T02:33:21.719Z,29.95
2024-01-11T02:35:55.457Z,29.91
2024-01-11T02:38:28.923Z,29.88
2024-01-11T02:41:02.793Z,29.83
2024-01-11T02:43:37.057Z,29.89
2024-01-11T02:46:10.313Z,29.95
2024-01-11T02:48:43.704Z,29.97
2024-01-11T02:51:17.162Z,29.90
2024-01-11T02:53:50.464Z,29.98
2024-01-11T02:56:24.853Z,29.82
2024-01-11T02:58:58.219Z,30.21
2024-01-11T03:01:31.587Z,29.90
2024-01-11T03:04:05.102Z,30.03
2024-01-11T03:06:38.691Z,30.07
2024-01-11T03:09:12.357Z,30.13
2024-01-11T03:11:45.691Z,30.00
2024-01-11T03:14:19.162Z,30.16
2024-01-11T03:16:52.811Z,30.32
2024-01-11T03:19:26.181Z,30.18
2024-01-11T03:21:59.752Z,30.23
2024-01-11T03:24:33.173Z,30.28
2024-01-11T03:27:06.923Z,30.39
2024-01-11T03:29:40.307Z,30.43
2024-01-11T03:32:14.107Z,30.28
2024-01-11T03:34:47.438Z,30.41
2024-01-11T03:37:20.766Z,30.41
2024-01-11T03:39:54.046Z,30.56
2024-01-11T03:42:27.404Z,30.63
2024-01-11T03:45:00.745Z,30.52
2024-01-11T03:47:34.237Z,30.67
2024-01-11T03:50:08.955Z,30.54
2024-01-11T03:52:42.663Z,30.67
2024-01-11T03:55:16.205Z,30.65
2024-01-11T03:57:49.542Z,30.68
2024-01-11T04:00:23.307Z,30.83
2024-01-11T04:02:56.638Z,30.67
2024-01-11T04:05:30.173Z,30.89
2024-01-11T04:08:05.159Z,31.00
2024-01-11T04:10:38.732Z,31.14
2024-01-11T04:13:13.822Z,31.15
2024-01-11T04:15:47.685Z,31.12
2024-01-11T04:18:21.320Z,31.23
2024-01-11T04:20:55.042Z,31.10
2024-01-11T04:23:28.452Z,31.20
2024-01-11T04:26:01.910Z,31.20
2024-01-11T04:28:35.430Z,31.25
2024-01-11T04:31:10.032Z,31.24
2024-01-11T04:33:46.579Z,31.23
2024-01-11T04:36:20.046Z,31.19
2024-01-11T04:38:53.337Z,31.27
2024-01-11T04:41:26.917Z,31.23
2024-01-11T04:44:00.339Z,31.20
2024-01-11T04:46:33.803Z,31.08
2024-01-11T04:49:07.281Z,31.16
2024-01-11T04:51:40.740Z,31.18
2024-01-11T04:54:14.140Z,31.27
2024-01-11T04:56:47.544Z,31.05
2024-01-11T04:59:21.049Z,31.22
2024-01-11T05:01:54.445Z,31.33
2024-01-11T05:04:27.812Z,31.21
2024-01-11T05:07:01.288Z,31.19
2024-01-11T05:09:34.672Z,31.22
2024-01-11T05:12:09.560Z,31.33
2024-01-11T05:14:43.057Z,31.27
2024-01-11T05:17:16.840Z,31.21
2024-01-11T05:19:50.337Z,31.37
2024-01-11T05:22:23.720Z,31.34
2024-01-11T05:24:57.352Z,31.39
2024-01-11T05:27:30.670Z,31.35
2024-01-11T05:30:04.260Z,31.50
2024-01-11T05:32:37.850Z,31.64
2024-01-11T05:35:12.372Z,31.44
2024-01-11T05:37:45.864Z,31.59
2024-01-11T05:40:19.906Z,31.49
2024-01-11T05:42:53.511Z,31.46
2024-01-11T05:45:35.785Z,31.59
2024-01-11T05:48:15.552Z,31.44
2024-01-11T05:50:48.951Z,31.53
2024-01-11T05:53:22.660Z,31.65
2024-01-11T05:55:56.137Z,31.55
2024-01-11T05:58:29.493Z,31.67
2024-01-11T06:01:03.091Z,31.88
2024-01-11T06:03:36.544Z,31.82
2024-01-11T06:06:10.610Z,31.84
2024-01-11T06:08:44.967Z,31.86
2024-01-11T06:11:19.541Z,31.83
2024-01-11T06:13:53.016Z,32.13
2024-01-11T06:16:26.404Z,32.01
2024-01-11T06:19:00.061Z,32.11
2024-01-11T06:21:33.523Z,32.02
2024-01-11T06:24:07.261Z,32.10
2024-01-11T06:26:40.821Z,32.13
2024-01-11T06:29:14.211Z,32.04
2024-01-11T06:31:47.564Z,32.16
2024-01-11T06:34:20.962Z,32.04
2024-01-11T06:36:54.411Z,32.15
2024-01-11T06:39:27.819Z,32.28
2024-01-11T06:42:01.292Z,32.16
2024-01-11T06:44:34.931Z,32.19
2024-01-11T06:47:08.973Z,32.32
2024-01-11T06:49:44.661Z,32.28
2024-01-11T06:52:17.994Z,32.34
2024-01-11T06:54:51.312Z,32.36
2024-01-11T06:57:25.892Z,32.40
2024-01-11T06:59:59.386Z,32.42
2024-01-11T07:02:33.042Z,32.39
2024-01-11T07:05:06.843Z,32.59
2024-01-11T07:07:40.328Z,32.42
2024-01-11T07:10:14.596Z,32.54
2024-01-11T07:12:49.161Z,32.51
2024-01-11T07:15:22.605Z,32.46
2024-01-11T07:17:56.065Z,32.48
2024-01-11T07:20:29.459Z,32.51
2024-01-11T07:23:03.034Z,32.52
2024-01-11T07:25:36.522Z,32.49
2024-01-11T07:28:10.389Z,32.57
2024-01-11T07:30:44.058Z,32.49
2024-01-11T07:33:17.585Z,32.54
2024-01-11T07:35:51.744Z,32.61
2024-01-11T07:38:25.420Z,32.58
2024-01-11T07:40:58.947Z,32.51
2024-01-11T07:43:44.999Z,32.45
2024-01-11T07:46:32.592Z,32.52
2024-01-11T07:49:11.341Z,32.55
2024-01-11T07:51:44.741Z,32.46
2024-01-11T07:54:18.128Z,32.64
2024-01-11T07:56:51.806Z,32.63
2024-01-11T07:59:25.268Z,32.55
2024-01-11T08:01:58.952Z,32.65
2024-01-11T08:04:32.335Z,32.81
2024-01-11T08:07:06.713Z,32.46
2024-01-11T08:09:46.289Z,32.32
2024-01-11T08:12:19.945Z,32.51
2024-01-11T08:14:53.451Z,32.78
2024-01-11T08:17:26.977Z,32.71
2024-01-11T08:20:00.482Z,33.00
2024-01-11T08:22:35.629Z,32.94
2024-01-11T08:25:10.315Z,32.91
2024-01-11T08:27:43.987Z,32.94
2024-01-11T08:30:18.364Z,33.05
2024-01-11T08:32:51.759Z,33.05
2024-01-11T08:35:25.436Z,33.16
2024-01-11T08:37:58.961Z,33.23
2024-01-11T08:40:32.406Z,33.26
2024-01-11T08:43:07.592Z,33.32
2024-01-11T08:45:41.190Z,33.35
2024-01-11T08:48:14.711Z,33.23
2024-01-11T08:50:48.176Z,33.16
2024-01-11T08:53:22.691Z,33.05
2024-01-11T08:55:56.055Z,32.98
2024-01-11T08:58:29.381Z,33.05
2024-01-11T09:01:02.760Z,33.25
2024-01-11T09:03:36.526Z,33.22
2024-01-11T09:06:10.412Z,33.38
2024-01-11T09:08:44.006Z,33.45
2024-01-11T09:11:19.566Z,33.58
2024-01-11T09:13:52.956Z,33.65
2024-01-11T09:16:26.260Z,33.61
2024-01-11T09:19:01.296Z,33.65
2024-01-11T09:21:34.731Z,33.67
2024-01-11T09:24:08.545Z,33.72
2024-01-11T09:26:42.026Z,33.78
2024-01-11T09:29:15.466Z,33.82
2024-01-11T09:31:48.815Z,33.99
2024-01-11T09:34:22.176Z,34.00
2024-01-11T09:36:59.905Z,33.76
2024-01-11T09:39:33.800Z,33.95
2024-01-11T09:42:12.206Z,33.77
2024-01-11T09:44:46.065Z,32.62
2024-01-11T09:47:21.271Z,33.63
2024-01-11T09:49:57.164Z,33.35
2024-01-11T09:52:34.346Z,33.31
2024-01-11T09:55:10.250Z,33.23
2024-01-11T09:57:47.938Z,33.19
2024-01-11T10:00:27.005Z,33.53
2024-01-11T10:03:00.639Z,33.67
2024-01-11T10:05:35.572Z,33.70
2024-01-11T10:08:11.062Z,33.94
2024-01-11T10:10:44.741Z,34.19
2024-01-11T10:13:18.763Z,33.98
2024-01-11T10:15:52.213Z,34.13
2024-01-11T10:18:25.730Z,34.30
2024-01-11T10:21:00.859Z,34.28
2024-01-11T10:23:37.144Z,34.36
2024-01-11T10:26:10.757Z,34.27
2024-01-11T10:28:46.461Z,34.38
2024-01-11T10:31:22.332Z,34.32
2024-01-11T10:33:55.821Z,34.31
2024-01-11T10:36:32.569Z,34.39
2024-01-11T10:39:08.842Z,34.43
2024-01-11T10:41:49.078Z,34.46
2024-01-11T10:44:24.847Z,34.50
2024-01-11T10:47:00.427Z,34.40
2024-01-11T10:49:35.000Z,34.24
2024-01-11T10:52:14.102Z,34.08
2024-01-11T10:54:47.361Z,34.35
2024-01-11T10:57:22.064Z,34.17
2024-01-11T10:59:56.970Z,34.19
2024-01-11T11:02:31.542Z,34.21
2024-01-11T11:05:06.858Z,34.20
2024-01-11T11:07:41.586Z,34.29
2024-01-11T11:10:16.498Z,34.37
2024-01-11T11:12:50.916Z,34.51
2024-01-11T11:15:25.781Z,34.45
2024-01-11T11:17:59.849Z,34.39
2024-01-11T11:20:33.741Z,34.34
2024-01-11T11:23:11.967Z,34.46
2024-01-11T11:25:47.086Z,34.63
2024-01-11T11:28:21.206Z,34.48
2024-01-11T11:30:58.851Z,34.55
2024-01-11T11:33:33.218Z,34.11
2024-01-11T11:36:08.656Z,34.73
2024-01-11T11:38:42.662Z,34.90
2024-01-11T11:41:18.971Z,35.12
2024-01-11T11:43:53.468Z,35.37
2024-01-11T11:46:27.486Z,35.55
2024-01-11T11:49:01.377Z,35.50
2024-01-11T11:51:37.084Z,35.71
2024-01-11T11:54:12.722Z,35.99
2024-01-11T11:56:46.500Z,35.36
2024-01-11T11:59:20.080Z,35.90
2024-01-11T12:01:54.632Z,35.91
2024-01-11T12:04:28.008Z,35.99
2024-01-11T12:07:01.551Z,36.10
2024-01-11T12:09:35.413Z,36.35
2024-01-11T12:12:15.656Z,36.47
2024-01-11T12:14:50.708Z,36.34
2024-01-11T12:17:24.310Z,36.36
2024-01-11T12:19:57.968Z,36.53
2024-01-11T12:22:31.408Z,36.88
2024-01-11T12:25:05.152Z,36.89
2024-01-11T12:27:38.537Z,36.98
2024-01-11T12:30:18.101Z,36.86
2024-01-11T12:32:52.037Z,36.88
2024-01-11T12:35:25.659Z,36.96
2024-01-11T12:38:01.323Z,36.98
2024-01-11T12:40:36.491Z,37.17
2024-01-11T12:43:10.597Z,37.13
2024-01-11T12:45:44.162Z,37.10
2024-01-11T12:48:18.827Z,37.12
2024-01-11T12:50:57.569Z,36.75
2024-01-11T12:53:37.598Z,36.88
2024-01-11T12:56:12.884Z,36.95
2024-01-11T12:58:47.739Z,37.09
2024-01-11T13:01:21.696Z,37.02
2024-01-11T13:03:55.122Z,38.58
2024-01-11T13:06:28.764Z,38.98
2024-01-11T13:09:03.084Z,38.66
2024-01-11T13:11:36.542Z,38.96
2024-01-11T13:14:15.700Z,38.57
2024-01-11T13:16:49.846Z,39.03
2024-01-11T13:19:27.291Z,38.79
2024-01-11T13:22:01.412Z,38.28
2024-01-11T13:24:35.887Z,38.22
2024-01-11T13:27:09.686Z,38.14
2024-01-11T13:29:43.259Z,37.42
2024-01-11T13:32:16.961Z,37.99
2024-01-11T13:34:51.036Z,38.22
2024-01-11T13:37:24.440Z,38.48
2024-01-11T13:40:00.797Z,38.70
2024-01-11T13:42:34.587Z,38.05
2024-01-11T13:45:12.290Z,38.17
2024-01-11T13:47:45.727Z,38.65
2024-01-11T13:50:21.715Z,38.75
2024-01-11T13:52:55.991Z,38.98
2024-01-11T13:55:30.817Z,38.77
2024-01-11T13:58:04.468Z,38.08
2024-01-11T14:00:38.453Z,37.97
2024-01-11T14:03:12.246Z,37.63
2024-01-11T14:05:45.875Z,37.50
2024-01-11T14:08:19.589Z,37.07
2024-01-11T14:10:53.145Z,36.91
2024-01-11T14:13:26.590Z,36.81
2024-01-11T14:16:00.080Z,36.75
2024-01-11T14:18:33.739Z,36.53
2024-01-11T14:21:07.569Z,36.53
2024-01-11T14:23:41.053Z,36.60
2024-01-11T14:26:14.828Z,36.68
2024-01-11T14:28:48.339Z,36.50
2024-01-11T14:31:21.782Z,37.17
2024-01-11T14:33:55.315Z,37.47
2024-01-11T14:36:29.201Z,37.70
2024-01-11T14:39:05.303Z,39.73
2024-01-11T14:41:39.243Z,39.01
2024-01-11T14:44:12.861Z,38.08
2024-01-11T14:46:46.493Z,38.46
2024-01-11T14:49:19.970Z,38.07
2024-01-11T14:51:53.774Z,37.66
2024-01-11T14:54:28.678Z,37.28
2024-01-11T14:57:02.162Z,37.06
2024-01-11T14:59:35.601Z,36.97
2024-01-11T15:02:10.419Z,36.78
2024-01-11T15:04:44.127Z,36.58
2024-01-11T15:07:17.615Z,36.48
2024-01-11T15:09:50.960Z,36.36
2024-01-11T15:12:24.457Z,36.30
2024-01-11T15:14:58.137Z,36.08
2024-01-11T15:17:31.903Z,36.11
2024-01-11T15:20:05.915Z,35.97
2024-01-11T15:22:39.332Z,35.74
2024-01-11T15:25:13.124Z,35.70
2024-01-11T15:27:46.606Z,35.72
2024-01-11T15:30:20.213Z,35.54
2024-01-11T15:32:54.149Z,35.56
2024-01-11T15:35:28.117Z,35.36
2024-01-11T15:38:02.106Z,35.27
2024-01-11T15:40:35.529Z,35.31
2024-01-11T15:43:09.451Z,35.18
2024-01-11T15:45:42.958Z,35.14
2024-01-11T15:48:16.572Z,35.10
2024-01-11T15:50:50.685Z,35.04
2024-01-11T15:53:24.154Z,34.99
2024-01-11T15:55:57.885Z,34.83
2024-01-11T15:58:31.258Z,34.89
2024-01-11T16:01:04.890Z,34.71
2024-01-11T16:03:38.832Z,34.79
2024-01-11T16:06:12.744Z,34.68
2024-01-11T16:08:48.436Z,34.73
2024-01-11T16:11:22.648Z,34.71
2024-01-11T16:13:56.125Z,34.56
2024-01-11T16:16:29.540Z,34.57
2024-01-11T16:19:03.205Z,34.64
2024-01-11T16:21:37.174Z,34.50
2024-01-11T16:24:21.917Z,34.34
2024-01-11T16:26:55.366Z,34.35
2024-01-11T16:29:29.075Z,34.37
2024-01-11T16:32:02.612Z,34.16
2024-01-11T16:34:38.106Z,34.34
2024-01-11T16:37:11.662Z,34.36
2024-01-11T16:39:45.334Z,34.38
2024-01-11T16:42:19.618Z,34.17
2024-01-11T16:44:53.065Z,34.25
2024-01-11T16:47:26.501Z,34.18
2024-01-11T16:50:00.397Z,34.28
2024-01-11T16:52:34.536Z,34.21
2024-01-11T16:55:09.112Z,34.16
2024-01-11T16:57:43.101Z,34.22
2024-01-11T17:00:20.428Z,34.10
2024-01-11T17:02:55.006Z,34.23
2024-01-11T17:05:29.996Z,34.43
2024-01-11T17:08:04.475Z,34.18
2024-01-11T17:10:39.005Z,34.47
2024-01-11T17:13:12.689Z,34.31
2024-01-11T17:15:46.391Z,34.33
2024-01-11T17:18:20.039Z,34.59
2024-01-11T17:20:54.497Z,35.04
2024-01-11T17:23:28.117Z,35.70
2024-01-11T17:26:04.634Z,37.05
2024-01-11T17:28:38.465Z,39.01
2024-01-11T17:31:11.954Z,38.58
2024-01-11T17:33:47.792Z,37.52
2024-01-11T17:36:21.726Z,36.74
2024-01-11T17:38:55.837Z,36.31
2024-01-11T17:41:29.299Z,35.84
2024-01-11T17:44:03.557Z,35.78
2024-01-11T17:46:37.915Z,35.70
2024-01-11T17:49:14.687Z,35.44
2024-01-11T17:51:48.107Z,35.47
2024-01-11T17:54:21.546Z,35.18
2024-01-11T17:56:55.217Z,35.14
2024-01-11T17:59:29.132Z,35.53
2024-01-11T18:02:03.651Z,35.22
2024-01-11T18:04:37.055Z,35.27
2024-01-11T18:07:12.076Z,35.36
2024-01-11T18:09:46.201Z,35.45
2024-01-11T18:12:20.370Z,35.22
2024-01-11T18:14:53.920Z,35.32
2024-01-11T18:17:27.714Z,35.22
2024-01-11T18:20:01.820Z,35.18
2024-01-11T18:22:35.746Z,35.18
2024-01-11T18:25:11.278Z,35.18
2024-01-11T18:27:45.208Z,35.21
2024-01-11T18:30:19.489Z,35.12
2024-01-11T18:32:53.016Z,35.13
2024-01-11T18:35:26.548Z,35.36
2024-01-11T18:38:00.621Z,35.05
2024-01-11T18:40:34.199Z,34.97
2024-01-11T18:43:08.015Z,35.12
2024-01-11T18:45:41.688Z,35.59
2024-01-11T18:48:15.342Z,36.11
2024-01-11T18:50:49.081Z,36.32
2024-01-11T18:53:23.154Z,37.49
2024-01-11T18:55:57.914Z,37.85
2024-01-11T18:58:31.547Z,39.50
2024-01-11T19:01:09.192Z,38.75
2024-01-11T19:03:42.948Z,38.25
2024-01-11T19:06:16.478Z,38.26
2024-01-11T19:08:50.077Z,37.31
2024-01-11T19:11:23.740Z,37.50
2024-01-11T19:13:57.853Z,36.97
2024-01-11T19:16:31.345Z,36.74
2024-01-11T19:19:05.508Z,36.65
2024-01-11T19:21:41.170Z,36.77
2024-01-11T19:24:14.635Z,36.64
2024-01-11T19:26:57.972Z,36.52
2024-01-11T19:29:51.588Z,36.04
2024-01-11T19:32:29.994Z,36.06
2024-01-11T19:35:03.583Z,35.92
2024-01-11T19:37:37.065Z,36.06
2024-01-11T19:40:12.718Z,35.99
2024-01-11T19:42:47.614Z,35.96
2024-01-11T19:45:21.226Z,35.65
2024-01-11T19:47:54.854Z,35.50
2024-01-11T19:50:28.554Z,35.45
2024-01-11T19:53:02.052Z,35.30
2024-01-11T19:55:38.420Z,35.27
2024-01-11T19:58:11.848Z,35.19
2024-01-11T20:00:45.185Z,35.08
2024-01-11T20:03:18.568Z,35.01
2024-01-11T20:05:52.213Z,34.98
2024-01-11T20:08:25.837Z,34.88
2024-01-11T20:11:00.996Z,34.97
2024-01-11T20:13:34.638Z,34.95
2024-01-11T20:16:09.495Z,35.02
2024-01-11T20:18:44.348Z,34.84
2024-01-11T20:21:18.132Z,34.67
2024-01-11T20:23:51.717Z,34.68
2024-01-11T20:26:27.482Z,34.65
2024-01-11T20:29:05.130Z,34.58
2024-01-11T20:31:41.137Z,34.64
2024-01-11T20:34:15.327Z,34.71
2024-01-11T20:36:48.744Z,34.48
2024-01-11T20:39:22.269Z,34.64
2024-01-11T20:41:58.482Z,34.69
2024-01-11T20:44:32.116Z,34.58
2024-01-11T20:47:05.842Z,34.50
2024-01-11T20:49:39.375Z,34.65
2024-01-11T20:52:12.914Z,34.50
2024-01-11T20:54:46.226Z,34.54
2024-01-11T20:57:19.916Z,34.51
2024-01-11T20:59:53.280Z,34.44
2024-01-11T21:02:26.722Z,34.39
2024-01-11T21:05:00.232Z,34.59
2024-01-11T21:07:33.723Z,34.42
2024-01-11T21:10:08.048Z,34.48
2024-01-11T21:12:41.388Z,34.42
2024-01-11T21:15:15.093Z,34.32
2024-01-11T21:17:48.639Z,34.31
2024-01-11T21:20:22.374Z,34.29
2024-01-11T21:22:55.799Z,34.37
2024-01-11T21:25:29.173Z,34.22
2024-01-11T21:28:03.926Z,34.13
2024-01-11T21:30:37.340Z,34.07
2024-01-11T21:33:11.011Z,34.11
2024-01-11T21:35:45.104Z,34.22
2024-01-11T21:38:18.603Z,34.24
2024-01-11T21:40:52.875Z,34.20
2024-01-11T21:43:26.346Z,34.22
2024-01-11T21:45:59.702Z,34.20
2024-01-11T21:48:33.209Z,34.27
2024-01-11T21:51:07.287Z,34.81
2024-01-11T21:53:43.098Z,35.33
2024-01-11T21:56:19.660Z,35.60
2024-01-11T21:58:53.101Z,36.14
2024-01-11T22:01:28.246Z,36.02
2024-01-11T22:04:01.748Z,35.70
2024-01-11T22:06:35.250Z,35.53
2024-01-11T22:09:09.277Z,35.32
2024-01-11T22:11:42.760Z,35.08
2024-01-11T22:14:16.161Z,35.09
2024-01-11T22:16:49.778Z,34.91
2024-01-11T22:19:23.549Z,34.76
2024-01-11T22:21:57.048Z,34.79
2024-01-11T22:24:30.438Z,34.57
2024-01-11T22:27:10.981Z,34.74
2024-01-11T22:29:44.444Z,34.46
2024-01-11T22:32:18.152Z,34.62
2024-01-11T22:34:51.684Z,34.84
2024-01-11T22:37:25.247Z,35.31
2024-01-11T22:39:58.913Z,35.41
2024-01-11T22:42:33.649Z,35.12
2024-01-11T22:45:08.390Z,34.98
2024-01-11T22:47:42.265Z,35.02
2024-01-11T22:50:17.314Z,35.07
2024-01-11T22:52:50.730Z,34.92
2024-01-11T22:55:26.690Z,34.71
2024-01-11T22:58:00.257Z,34.86
2024-01-11T23:00:33.644Z,34.85
2024-01-11T23:03:07.526Z,34.86
2024-01-11T23:05:41.539Z,34.65
2024-01-11T23:08:15.226Z,34.64
2024-01-11T23:10:48.764Z,34.44
2024-01-11T23:13:22.266Z,34.64
2024-01-11T23:15:55.610Z,34.53
2024-01-11T23:18:29.345Z,34.45
2024-01-11T23:21:03.053Z,34.53
2024-01-11T23:23:36.645Z,34.67
2024-01-11T23:26:10.235Z,33.96
2024-01-11T23:28:43.733Z,34.72
2024-01-11T23:31:17.335Z,35.15
2024-01-11T23:33:50.879Z,35.42
2024-01-11T23:36:24.520Z,37.19
2024-01-11T23:38:58.065Z,36.73
2024-01-11T23:41:31.556Z,35.92
2024-01-11T23:44:05.266Z,35.66
2024-01-11T23:46:38.569Z,35.33
2024-01-11T23:49:12.018Z,35.23
2024-01-11T23:51:45.614Z,35.17
2024-01-11T23:54:19.145Z,34.95
2024-01-11T23:56:52.843Z,34.93
2024-01-11T23:59:26.358Z,34.86
